Time;durP1;ratioP1;P1;durP2;ratioP2;P2;SDS_P1;SDS_P2;PMS_P1;PMS_P2;Temp;Humidity;BMP_temperature;BMP_pressure;BME280_temperature;BME280_humidity;BME280_pressure;Samples;Min_cycle;Max_cycle;Signal;HPM_P1;HPM_P2
2022/09/13 00:01:48;;;;;;;7.25;4.45;;;20.10;99.90;;;;;;4140377;28;20129;-66
2022/09/13 00:03:48;;;;;;;4.25;3.45;;;20.10;99.90;;;;;;4142324;28;20050;-66
2022/09/13 00:05:49;;;;;;;5.35;3.80;;;20.10;99.90;;;;;;4134577;28;20034;-66
2022/09/13 00:07:50;;;;;;;5.07;3.83;;;20.20;99.90;;;;;;4138377;28;20038;-66
2022/09/13 00:09:50;;;;;;;7.32;4.30;;;20.20;99.90;;;;;;4137924;28;20046;-66
2022/09/13 00:11:51;;;;;;;4.38;3.65;;;20.20;99.90;;;;;;4132141;28;20092;-66
2022/09/13 00:13:53;;;;;;;3.85;3.22;;;20.20;99.90;;;;;;4139328;28;20037;-66
2022/09/13 00:15:53;;;;;;;4.00;3.28;;;20.20;99.90;;;;;;4139768;28;20030;-66
2022/09/13 00:17:55;;;;;;;5.80;3.50;;;20.30;99.90;;;;;;4137871;28;20038;-65
2022/09/13 00:19:55;;;;;;;5.32;3.45;;;20.30;99.90;;;;;;4140074;28;20038;-66
2022/09/13 00:21:56;;;;;;;4.07;3.20;;;20.30;99.90;;;;;;4139162;28;20030;-66
2022/09/13 00:23:56;;;;;;;3.75;3.22;;;20.30;99.90;;;;;;4135692;28;20030;-65
2022/09/13 00:26:12;;;;;;;3.72;3.17;;;20.30;99.90;;;;;;4137639;28;20133;-66
2022/09/13 00:28:12;;;;;;;3.30;3.00;;;20.30;99.90;;;;;;4139999;28;20026;-66
2022/09/13 00:30:13;;;;;;;3.95;3.20;;;20.30;99.90;;;;;;4138506;28;20058;-67
2022/09/13 00:32:14;;;;;;;4.00;2.90;;;20.40;99.90;;;;;;4140194;28;20572;-66
2022/09/13 00:34:14;;;;;;;3.47;2.80;;;20.40;99.90;;;;;;4139894;28;20057;-67
2022/09/13 00:36:15;;;;;;;4.07;3.40;;;20.40;99.90;;;;;;4139056;28;20033;-66
2022/09/13 00:38:15;;;;;;;4.53;3.25;;;20.30;99.90;;;;;;4142886;28;20053;-66
2022/09/13 00:40:16;;;;;;;6.82;3.00;;;20.30;99.90;;;;;;4135130;28;20376;-66
2022/09/13 00:42:17;;;;;;;5.50;2.63;;;20.30;99.90;;;;;;4137102;28;20483;-66
2022/09/13 00:44:51;;;;;;;3.15;2.85;;;20.30;99.90;;;;;;4135542;28;20030;-66
2022/09/13 00:46:52;;;;;;;3.33;2.50;;;20.30;99.90;;;;;;4135353;28;20030;-67
2022/09/13 00:48:58;;;;;;;3.90;2.88;;;20.30;99.90;;;;;;4141150;28;20606;-66
2022/09/13 00:50:59;;;;;;;3.78;2.80;;;20.30;99.90;;;;;;4144557;28;20030;-67
2022/09/13 00:53:10;;;;;;;4.15;3.30;;;20.30;99.90;;;;;;4146297;28;20038;-67
2022/09/13 00:55:19;;;;;;;3.30;3.00;;;20.30;99.90;;;;;;4145344;28;20034;-66
2022/09/13 00:57:23;;;;;;;3.33;2.78;;;20.30;99.90;;;;;;4146276;28;20137;-66
2022/09/13 01:00:10;;;;;;;3.67;3.22;;;20.30;99.90;;;;;;4142898;28;20053;-66
2022/09/13 01:02:11;;;;;;;4.07;3.05;;;20.20;99.90;;;;;;4134937;28;20030;-66
2022/09/13 01:04:12;;;;;;;3.65;3.03;;;20.20;99.90;;;;;;4133201;28;20042;-67
2022/09/13 01:06:22;;;;;;;3.95;2.95;;;20.20;99.90;;;;;;4130601;28;20030;-66
2022/09/13 01:08:22;;;;;;;3.25;2.85;;;20.20;99.90;;;;;;4135124;28;20044;-66
2022/09/13 01:10:23;;;;;;;3.53;3.03;;;20.20;99.90;;;;;;4138454;28;20558;-66
2022/09/13 01:12:27;;;;;;;3.35;2.85;;;20.20;99.90;;;;;;4136611;28;20070;-66
2022/09/13 01:14:28;;;;;;;3.92;3.00;;;20.20;99.90;;;;;;4139375;28;20117;-66
2022/09/13 01:16:29;;;;;;;4.20;2.85;;;20.20;99.90;;;;;;4140619;28;20038;-66
2022/09/13 01:18:30;;;;;;;3.97;2.78;;;20.20;99.90;;;;;;4140846;28;20048;-66
2022/09/13 01:20:55;;;;;;;3.40;3.00;;;20.10;99.90;;;;;;4140233;28;20046;-66
2022/09/13 01:23:16;;;;;;;5.63;3.05;;;20.10;99.90;;;;;;4139541;28;20026;-66
2022/09/13 01:25:22;;;;;;;3.40;2.47;;;20.10;99.90;;;;;;4137893;28;20038;-66
2022/09/13 01:27:29;;;;;;;3.13;2.70;;;20.10;99.90;;;;;;4139557;28;20042;-68
2022/09/13 01:29:41;;;;;;;4.05;2.58;;;20.10;99.90;;;;;;4138677;28;20054;-66
2022/09/13 01:31:41;;;;;;;4.53;3.00;;;20.10;99.90;;;;;;4139843;28;20029;-66
2022/09/13 01:34:03;;;;;;;3.63;2.45;;;20.10;99.90;;;;;;4140381;28;20041;-66
2022/09/13 01:36:34;;;;;;;3.35;2.58;;;20.00;99.90;;;;;;4143014;28;20470;-66
2022/09/13 01:39:02;;;;;;;3.70;3.05;;;20.00;99.90;;;;;;4144168;28;20034;-66
2022/09/13 01:41:24;;;;;;;4.13;3.15;;;19.90;99.90;;;;;;4132168;28;20041;-66
2022/09/13 01:44:12;;;;;;;4.57;3.30;;;19.90;99.90;;;;;;4134288;28;20154;-66
2022/09/13 01:46:48;;;;;;;4.22;2.88;;;19.90;99.90;;;;;;4133729;28;20046;-66
2022/09/13 01:49:13;;;;;;;3.50;2.53;;;19.90;99.90;;;;;;4130346;28;20034;-66
2022/09/13 01:51:31;;;;;;;4.65;3.20;;;19.90;99.90;;;;;;4140550;28;20034;-66
2022/09/13 01:53:46;;;;;;;3.92;2.90;;;19.90;99.90;;;;;;4133532;28;20042;-67
2022/09/13 01:56:15;;;;;;;4.20;2.90;;;19.90;99.90;;;;;;4133308;28;20030;-66
2022/09/13 01:58:32;;;;;;;4.35;2.58;;;19.90;99.90;;;;;;4138473;28;20391;-66
2022/09/13 02:01:06;;;;;;;3.63;2.75;;;19.90;99.90;;;;;;4129915;28;20050;-66
2022/09/13 02:03:11;;;;;;;;;;;19.90;99.90;;;;;;4129226;28;20498;-66
2022/09/13 02:05:34;;;;;;;2.55;2.35;;;19.90;99.90;;;;;;4134863;28;19936;-66
2022/09/13 02:07:40;;;;;;;3.42;2.90;;;20.00;99.90;;;;;;4135155;28;20040;-66
2022/09/13 02:09:45;;;;;;;3.20;2.38;;;20.00;99.90;;;;;;4138455;28;20407;-66
2022/09/13 02:11:51;;;;;;;3.08;2.45;;;20.00;99.90;;;;;;4140822;28;20099;-67
2022/09/13 02:14:13;;;;;;;3.13;2.65;;;20.00;99.90;;;;;;4140331;28;20113;-66
2022/09/13 02:16:44;;;;;;;3.55;2.70;;;20.00;99.90;;;;;;4137617;28;20033;-66
2022/09/13 02:18:53;;;;;;;2.58;2.17;;;20.00;99.90;;;;;;4135709;28;20491;-66
2022/09/13 02:20:58;;;;;;;2.35;2.15;;;20.00;99.90;;;;;;4135419;28;20038;-65
2022/09/13 02:23:04;;;;;;;3.63;2.60;;;20.00;99.90;;;;;;4140436;28;20513;-66
2022/09/13 02:25:10;;;;;;;2.95;2.40;;;20.00;99.90;;;;;;4136611;28;20176;-67
2022/09/13 02:27:17;;;;;;;4.03;2.40;;;20.10;99.90;;;;;;4138590;28;20050;-66
2022/09/13 02:29:21;;;;;;;2.60;2.35;;;20.10;99.90;;;;;;4134047;28;20057;-66
2022/09/13 02:31:30;;;;;;;2.40;1.90;;;20.10;99.90;;;;;;4137409;28;20089;-65
2022/09/13 02:33:38;;;;;;;3.08;2.40;;;20.10;99.90;;;;;;4137488;28;20026;-66
2022/09/13 02:35:49;;;;;;;2.65;2.25;;;20.10;99.90;;;;;;4139754;28;20022;-66
2022/09/13 02:38:01;;;;;;;2.60;2.40;;;20.10;99.90;;;;;;4128663;28;20035;-66
2022/09/13 02:40:07;;;;;;;2.70;2.50;;;20.10;99.90;;;;;;4133478;28;20196;-66
2022/09/13 02:42:16;;;;;;;2.58;1.90;;;20.10;99.90;;;;;;4124775;28;20064;-65
2022/09/13 02:44:42;;;;;;;3.17;2.50;;;20.10;99.90;;;;;;4134475;28;20053;-66
2022/09/13 02:46:55;;;;;;;3.85;2.65;;;20.20;99.90;;;;;;4135925;28;20042;-66
2022/09/13 02:49:06;;;;;;;3.50;2.80;;;20.20;99.90;;;;;;4133844;28;20038;-66
2022/09/13 02:51:29;;;;;;;2.88;2.58;;;20.20;99.90;;;;;;4140304;28;20091;-65
2022/09/13 02:53:49;;;;;;;3.42;2.90;;;20.20;99.90;;;;;;4132783;28;20498;-66
2022/09/13 02:56:15;;;;;;;2.85;2.50;;;20.10;99.90;;;;;;4133839;28;20117;-66
2022/09/13 02:58:47;;;;;;;3.38;2.67;;;20.10;99.90;;;;;;4153849;28;20038;-69
2022/09/13 03:00:47;;;;;;;3.63;2.60;;;20.10;99.90;;;;;;4159874;28;20033;-69
2022/09/13 03:02:50;;;;;;;3.33;2.40;;;20.10;99.90;;;;;;4155827;28;20045;-69
2022/09/13 03:04:50;;;;;;;4.30;2.95;;;20.10;99.90;;;;;;4163608;28;20068;-69
2022/09/13 03:06:51;;;;;;;2.78;2.47;;;20.10;99.90;;;;;;4158560;28;20038;-68
2022/09/13 03:08:59;;;;;;;3.05;2.65;;;20.10;99.90;;;;;;4158140;28;20026;-69
2022/09/13 03:11:32;;;;;;;3.90;2.72;;;20.10;99.90;;;;;;4156612;28;20045;-72
2022/09/13 03:14:06;;;;;;;3.55;2.30;;;20.10;99.90;;;;;;4152065;28;20655;-71
2022/09/13 03:16:31;;;;;;;5.18;2.88;;;20.00;99.90;;;;;;4150029;28;20034;-71
2022/09/13 03:18:47;;;;;;;3.85;2.72;;;20.00;99.90;;;;;;4157339;28;20058;-70
2022/09/13 03:20:53;;;;;;;3.55;2.55;;;19.90;99.90;;;;;;4149538;28;20560;-71
2022/09/13 03:23:35;;;;;;;3.85;2.70;;;20.00;99.90;;;;;;4150406;28;20030;-71
2022/09/13 03:26:02;;;;;;;3.15;2.70;;;19.90;99.90;;;;;;4149517;28;20048;-72
2022/09/13 03:28:05;;;;;;;3.67;2.95;;;19.80;99.90;;;;;;4149821;28;20041;-72
2022/09/13 03:30:14;;;;;;;4.38;2.88;;;19.80;99.90;;;;;;4150936;28;20046;-70
2022/09/13 03:32:37;;;;;;;3.33;2.25;;;19.80;99.90;;;;;;4148487;28;20042;-68
2022/09/13 03:35:13;;;;;;;4.05;2.72;;;19.80;99.90;;;;;;4154136;28;20041;-71
2022/09/13 03:37:52;;;;;;;5.90;3.42;;;19.80;99.90;;;;;;4146286;28;20032;-72
2022/09/13 03:40:04;;;;;;;4.07;2.70;;;19.70;99.90;;;;;;4132081;28;20039;-70
2022/09/13 03:42:13;;;;;;;3.63;2.60;;;19.70;99.90;;;;;;4151409;28;20046;-71
2022/09/13 03:44:18;;;;;;;3.58;2.70;;;19.70;99.90;;;;;;4153040;28;20018;-72
2022/09/13 03:46:45;;;;;;;2.67;2.17;;;19.70;99.90;;;;;;4154909;28;20018;-71
2022/09/13 03:48:46;;;;;;;3.78;2.38;;;19.70;99.90;;;;;;4162414;28;20046;-69
2022/09/13 03:50:48;;;;;;;2.97;2.47;;;19.70;99.90;;;;;;4152586;28;20034;-68
2022/09/13 03:53:01;;;;;;;5.45;2.90;;;19.70;99.90;;;;;;4149970;28;20034;-68
2022/09/13 03:55:02;;;;;;;;;;;19.70;99.90;;;;;;4148954;28;20049;-71
2022/09/13 03:57:19;;;;;;;2.53;2.30;;;19.70;99.90;;;;;;4154080;28;19925;-72
2022/09/13 03:59:20;;;;;;;3.75;2.20;;;19.70;99.90;;;;;;4163527;28;20128;-71
2022/09/13 04:01:23;;;;;;;3.15;2.47;;;19.70;99.90;;;;;;4158639;28;20045;-71
2022/09/13 04:03:23;;;;;;;2.95;2.22;;;19.70;99.90;;;;;;4156496;28;20034;-70
2022/09/13 04:05:24;;;;;;;3.97;2.85;;;19.80;99.90;;;;;;4156945;28;20052;-72
2022/09/13 04:07:25;;;;;;;4.35;2.58;;;19.80;99.90;;;;;;4153404;28;20094;-69
2022/09/13 04:09:25;;;;;;;6.15;2.30;;;19.80;99.90;;;;;;4157500;28;20038;-68
2022/09/13 04:11:27;;;;;;;3.47;2.55;;;19.80;99.90;;;;;;4155933;28;20080;-69
2022/09/13 04:13:28;;;;;;;2.25;2.05;;;19.80;99.90;;;;;;4157168;28;20038;-69
2022/09/13 04:15:32;;;;;;;5.30;2.55;;;19.80;99.90;;;;;;4151998;28;20048;-70
2022/09/13 04:17:32;;;;;;;2.55;2.33;;;19.80;99.90;;;;;;4158939;28;20038;-70
2022/09/13 04:19:33;;;;;;;2.53;2.20;;;19.80;99.90;;;;;;4159296;28;20041;-69
2022/09/13 04:21:35;;;;;;;3.95;2.35;;;19.80;99.90;;;;;;4154342;28;20061;-71
2022/09/13 04:23:35;;;;;;;4.75;2.50;;;19.80;99.90;;;;;;4154900;28;20087;-71
2022/09/13 04:25:39;;;;;;;2.83;2.17;;;19.80;99.90;;;;;;4151317;28;20050;-72
2022/09/13 04:27:40;;;;;;;3.47;2.30;;;19.80;99.90;;;;;;4156069;28;20102;-70
2022/09/13 04:29:40;;;;;;;2.90;2.55;;;19.80;99.90;;;;;;4154486;28;20050;-72
2022/09/13 04:31:41;;;;;;;3.08;2.30;;;19.70;99.90;;;;;;4149143;28;20106;-72
2022/09/13 04:33:41;;;;;;;2.78;2.15;;;19.70;99.90;;;;;;4152758;28;20026;-70
2022/09/13 04:35:42;;;;;;;2.60;2.00;;;19.70;99.90;;;;;;4159059;28;20030;-71
2022/09/13 04:37:43;;;;;;;2.25;2.00;;;19.70;99.90;;;;;;4162166;28;20034;-69
2022/09/13 04:39:43;;;;;;;2.35;2.15;;;19.70;99.90;;;;;;4163159;28;20081;-70
2022/09/13 04:41:45;;;;;;;2.88;2.00;;;19.70;99.90;;;;;;4160246;28;20029;-70
2022/09/13 04:43:49;;;;;;;3.72;2.50;;;19.70;99.90;;;;;;4161969;28;20042;-68
2022/09/13 04:45:50;;;;;;;3.28;2.25;;;19.80;99.90;;;;;;4162437;28;20042;-71
2022/09/13 04:47:52;;;;;;;2.28;2.08;;;19.80;99.90;;;;;;4162526;28;20026;-69
2022/09/13 04:49:54;;;;;;;3.08;2.03;;;19.80;99.90;;;;;;4163204;28;20053;-70
2022/09/13 04:51:54;;;;;;;4.30;2.17;;;19.80;99.90;;;;;;4162547;28;20042;-70
2022/09/13 04:53:56;;;;;;;3.90;2.40;;;19.80;99.90;;;;;;4163432;28;20041;-70
2022/09/13 04:56:03;;;;;;;2.50;2.20;;;19.80;99.90;;;;;;4159544;28;20073;-72
2022/09/13 04:58:04;;;;;;;3.25;2.30;;;19.80;99.90;;;;;;4155173;28;20044;-70
2022/09/13 05:00:06;;;;;;;3.22;2.22;;;19.70;99.90;;;;;;4156727;28;20443;-70
2022/09/13 05:02:07;;;;;;;2.42;1.95;;;19.80;99.90;;;;;;4158063;28;20034;-72
2022/09/13 05:04:08;;;;;;;3.60;2.22;;;19.80;99.90;;;;;;4154446;28;20183;-71
2022/09/13 05:06:12;;;;;;;2.88;2.28;;;19.80;99.90;;;;;;4155572;28;20014;-72
2022/09/13 05:08:13;;;;;;;2.53;1.75;;;19.80;99.90;;;;;;4163441;28;20057;-71
2022/09/13 05:10:13;;;;;;;1.77;1.65;;;19.80;99.90;;;;;;4160907;28;20038;-72
2022/09/13 05:12:14;;;;;;;2.38;1.92;;;19.80;99.90;;;;;;4156815;28;20033;-69
2022/09/13 05:14:15;;;;;;;2.80;2.40;;;19.80;99.90;;;;;;4158204;28;20033;-69
2022/09/13 05:16:15;;;;;;;3.00;2.10;;;19.90;99.90;;;;;;4156701;28;20026;-69
2022/09/13 05:18:16;;;;;;;3.03;2.33;;;19.80;99.90;;;;;;4155158;28;20125;-69
2022/09/13 05:20:17;;;;;;;2.92;2.15;;;19.80;99.90;;;;;;4150846;23;20058;-63
2022/09/13 05:22:18;;;;;;;2.80;2.03;;;19.80;99.90;;;;;;4133556;28;20043;-63
2022/09/13 05:24:18;;;;;;;2.58;2.38;;;19.80;99.90;;;;;;4131230;28;20110;-63
2022/09/13 05:26:20;;;;;;;2.63;2.03;;;19.80;99.90;;;;;;4126681;28;20081;-63
2022/09/13 05:28:21;;;;;;;2.97;2.15;;;19.80;99.90;;;;;;4126237;28;20051;-63
2022/09/13 05:30:22;;;;;;;2.25;1.85;;;19.80;99.90;;;;;;4130834;28;20140;-63
2022/09/13 05:32:22;;;;;;;3.22;2.25;;;19.80;99.90;;;;;;4134086;28;20117;-63
2022/09/13 05:34:23;;;;;;;3.03;2.30;;;19.80;99.90;;;;;;4127003;28;20035;-63
2022/09/13 05:36:25;;;;;;;2.85;2.00;;;19.80;99.90;;;;;;4127647;28;20386;-62
2022/09/13 05:38:25;;;;;;;3.40;1.77;;;19.80;99.90;;;;;;4128820;28;20045;-63
2022/09/13 05:40:26;;;;;;;2.00;1.80;;;19.80;99.90;;;;;;4128897;28;20046;-63
2022/09/13 05:42:26;;;;;;;2.40;1.98;;;19.80;99.90;;;;;;4131270;28;20052;-63
2022/09/13 05:44:27;;;;;;;2.83;1.80;;;19.80;99.90;;;;;;4127510;28;21543;-64
2022/09/13 05:46:27;;;;;;;2.92;2.20;;;19.80;99.90;;;;;;4128171;28;20049;-63
2022/09/13 05:48:29;;;;;;;2.47;1.98;;;19.80;99.90;;;;;;4129765;28;20100;-63
2022/09/13 05:50:29;;;;;;;2.40;2.05;;;19.80;99.90;;;;;;4127727;28;20121;-63
2022/09/13 05:52:30;;;;;;;3.33;2.17;;;19.80;99.90;;;;;;4128653;28;20045;-63
2022/09/13 05:54:33;;;;;;;5.40;2.15;;;19.90;99.90;;;;;;4127014;28;20047;-63
2022/09/13 05:56:33;;;;;;;2.13;1.60;;;19.80;99.90;;;;;;4128930;28;20528;-63
2022/09/13 05:58:37;;;;;;;2.30;2.05;;;19.90;99.90;;;;;;4128158;28;20042;-63
2022/09/13 06:00:38;;;;;;;1.63;1.52;;;19.90;99.90;;;;;;4125128;28;23005;-63
2022/09/13 06:02:38;;;;;;;2.83;2.13;;;19.90;99.90;;;;;;4128876;28;20481;-63
2022/09/13 06:04:39;;;;;;;2.88;2.13;;;19.90;99.90;;;;;;4128566;28;20536;-63
2022/09/13 06:06:40;;;;;;;2.72;2.10;;;19.90;99.90;;;;;;4128120;28;20374;-63
2022/09/13 06:08:40;;;;;;;2.25;1.90;;;19.90;99.90;;;;;;4125150;28;20042;-64
2022/09/13 06:10:41;;;;;;;3.75;2.20;;;19.90;99.90;;;;;;4126755;28;20137;-64
2022/09/13 06:12:42;;;;;;;2.70;2.38;;;19.90;99.90;;;;;;4128405;28;20030;-64
2022/09/13 06:14:42;;;;;;;2.88;2.25;;;19.90;99.90;;;;;;4127806;28;20026;-64
2022/09/13 06:16:43;;;;;;;2.75;2.40;;;19.90;99.90;;;;;;4128712;28;20418;-64
2022/09/13 06:18:44;;;;;;;2.72;2.28;;;19.90;99.90;;;;;;4129861;28;20092;-64
2022/09/13 06:20:45;;;;;;;3.10;2.20;;;19.90;99.90;;;;;;4125647;28;20125;-64
2022/09/13 06:22:49;;;;;;;3.83;2.70;;;19.90;99.90;;;;;;4128502;28;20038;-64
2022/09/13 06:24:49;;;;;;;3.10;2.28;;;19.90;99.90;;;;;;4127999;28;20513;-64
2022/09/13 06:26:50;;;;;;;3.28;2.55;;;19.90;99.90;;;;;;4128115;28;20126;-64
2022/09/13 06:28:54;;;;;;;3.30;2.25;;;19.90;99.90;;;;;;4125970;28;20038;-65
2022/09/13 06:31:08;;;;;;;3.25;2.03;;;19.90;99.90;;;;;;4128149;28;20150;-64
2022/09/13 06:33:08;;;;;;;2.95;2.30;;;19.90;99.90;;;;;;4128278;28;20035;-64
2022/09/13 06:35:09;;;;;;;3.05;2.20;;;19.90;99.90;;;;;;4127798;28;20037;-64
2022/09/13 06:37:09;;;;;;;3.53;2.20;;;20.00;99.90;;;;;;4128983;28;20125;-64
2022/09/13 06:39:10;;;;;;;3.05;2.30;;;20.10;99.90;;;;;;4126987;28;20038;-64
2022/09/13 06:41:19;;;;;;;3.45;2.40;;;20.10;99.90;;;;;;4127032;28;20113;-64
2022/09/13 06:43:20;;;;;;;4.20;2.38;;;20.10;99.90;;;;;;4125374;28;20392;-65
2022/09/13 06:45:20;;;;;;;3.30;2.40;;;20.20;99.90;;;;;;4127593;28;20045;-65
2022/09/13 06:47:21;;;;;;;3.20;2.35;;;20.20;99.90;;;;;;4126346;28;21536;-65
2022/09/13 06:49:21;;;;;;;3.47;2.50;;;20.20;99.90;;;;;;4126914;28;20074;-64
2022/09/13 06:51:24;;;;;;;4.43;2.60;;;20.20;99.90;;;;;;4128294;28;20073;-64
2022/09/13 06:53:26;;;;;;;3.00;2.25;;;20.20;99.90;;;;;;4131989;28;20050;-64
2022/09/13 06:55:27;;;;;;;3.80;2.40;;;20.20;99.90;;;;;;4128047;28;20061;-64
2022/09/13 06:57:29;;;;;;;2.97;2.10;;;20.30;99.90;;;;;;4127922;28;20117;-64
2022/09/13 06:59:30;;;;;;;3.65;2.58;;;20.30;99.90;;;;;;4125450;28;20939;-65
2022/09/13 07:01:33;;;;;;;3.20;2.28;;;20.30;99.90;;;;;;4124865;28;20042;-65
2022/09/13 07:03:34;;;;;;;3.00;2.30;;;20.40;99.90;;;;;;4131283;28;20049;-64
2022/09/13 07:05:35;;;;;;;3.60;2.50;;;20.40;99.90;;;;;;4128204;28;20129;-64
2022/09/13 07:07:35;;;;;;;3.17;2.28;;;20.40;99.90;;;;;;4134952;28;20053;-64
2022/09/13 07:09:36;;;;;;;2.83;2.42;;;20.50;99.90;;;;;;4125786;28;20126;-64
2022/09/13 07:11:38;;;;;;;4.85;2.30;;;20.50;99.90;;;;;;4132450;28;20089;-64
2022/09/13 07:13:39;;;;;;;3.80;2.33;;;20.50;99.90;;;;;;4128221;28;20034;-64
2022/09/13 07:15:40;;;;;;;4.88;2.17;;;20.50;99.90;;;;;;4128474;28;20045;-64
2022/09/13 07:17:40;;;;;;;3.60;2.47;;;20.50;99.90;;;;;;4130409;28;20065;-64
2022/09/13 07:19:41;;;;;;;2.45;2.25;;;20.50;99.90;;;;;;4127362;28;20108;-64
2022/09/13 07:21:42;;;;;;;3.08;2.13;;;20.50;99.90;;;;;;4128005;28;20030;-64
2022/09/13 07:23:43;;;;;;;3.63;2.45;;;20.50;99.90;;;;;;4135160;28;20105;-64
2022/09/13 07:25:52;;;;;;;6.03;2.63;;;20.60;99.90;;;;;;4129228;28;20060;-64
2022/09/13 07:27:52;;;;;;;2.72;2.40;;;20.60;99.90;;;;;;4134517;28;20068;-65
2022/09/13 07:29:53;;;;;;;3.45;2.17;;;20.60;99.90;;;;;;4130838;28;20470;-64
2022/09/13 07:31:57;;;;;;;3.00;1.88;;;20.60;99.90;;;;;;4127828;28;20057;-64
2022/09/13 07:34:07;;;;;;;;;;;20.70;99.90;;;;;;4128294;28;20593;-64
2022/09/13 07:36:10;;;;;;;2.88;2.45;;;20.70;99.90;;;;;;4125280;28;20358;-64
2022/09/13 07:38:11;;;;;;;2.40;2.15;;;20.70;99.90;;;;;;4127730;28;20034;-64
2022/09/13 07:40:12;;;;;;;3.17;2.40;;;20.70;99.90;;;;;;4125216;28;20504;-64
2022/09/13 07:42:13;;;;;;;5.85;2.50;;;20.80;99.90;;;;;;4131892;28;20396;-64
2022/09/13 07:44:14;;;;;;;4.32;2.60;;;20.80;99.90;;;;;;4129657;28;20034;-64
2022/09/13 07:46:20;;;;;;;3.30;2.53;;;20.80;99.90;;;;;;4128030;28;20034;-65
2022/09/13 07:48:21;;;;;;;3.55;2.47;;;20.90;99.90;;;;;;4128240;28;20069;-65
2022/09/13 07:50:21;;;;;;;3.22;2.20;;;20.90;99.90;;;;;;4125952;28;20042;-65
2022/09/13 07:52:22;;;;;;;5.03;3.15;;;20.90;99.90;;;;;;4127570;28;20117;-65
2022/09/13 07:54:22;;;;;;;3.97;2.60;;;20.90;99.90;;;;;;4130846;28;20053;-64
2022/09/13 07:56:29;;;;;;;3.50;2.70;;;20.90;99.90;;;;;;4132661;28;20525;-64
2022/09/13 07:58:29;;;;;;;7.35;2.88;;;20.90;99.90;;;;;;4128962;28;20125;-65
2022/09/13 08:00:30;;;;;;;2.78;2.13;;;21.00;99.90;;;;;;4127256;28;20678;-65
2022/09/13 08:02:31;;;;;;;3.85;2.80;;;21.00;99.90;;;;;;4132108;28;20216;-65
2022/09/13 08:04:31;;;;;;;5.93;2.67;;;21.10;99.90;;;;;;4128099;28;20050;-65
2022/09/13 08:06:33;;;;;;;3.92;2.28;;;21.10;99.90;;;;;;4129364;28;20038;-65
2022/09/13 08:08:35;;;;;;;4.45;2.90;;;21.20;99.90;;;;;;4129973;28;20402;-65
2022/09/13 08:10:36;;;;;;;4.37;3.17;;;21.30;99.90;;;;;;4129305;28;20054;-65
2022/09/13 08:12:36;;;;;;;3.33;2.50;;;21.30;99.90;;;;;;4130703;28;20427;-64
2022/09/13 08:14:37;;;;;;;5.60;3.50;;;21.30;99.90;;;;;;4133864;28;20599;-65
2022/09/13 08:16:38;;;;;;;4.65;3.28;;;21.30;99.90;;;;;;4129289;28;20069;-64
2022/09/13 08:18:50;;;;;;;4.43;3.25;;;21.40;99.90;;;;;;4128308;28;20041;-64
2022/09/13 08:20:56;;;;;;;7.68;3.70;;;21.40;99.90;;;;;;4125096;28;20383;-65
2022/09/13 08:22:57;;;;;;;4.55;3.45;;;21.50;99.90;;;;;;4128214;28;20041;-65
2022/09/13 08:24:57;;;;;;;5.40;3.72;;;21.40;99.90;;;;;;4126571;28;20038;-65
2022/09/13 08:26:58;;;;;;;4.13;3.00;;;21.50;99.90;;;;;;4127190;28;20481;-65
2022/09/13 08:29:01;;;;;;;7.03;3.95;;;21.50;99.90;;;;;;4128377;28;20049;-65
2022/09/13 08:31:14;;;;;;;4.95;3.50;;;21.50;99.90;;;;;;4128413;28;20128;-66
2022/09/13 08:33:15;;;;;;;5.53;3.45;;;21.60;99.90;;;;;;4129991;28;20037;-65
2022/09/13 08:35:15;;;;;;;4.78;3.70;;;21.60;99.90;;;;;;4134686;28;20030;-65
2022/09/13 08:37:16;;;;;;;6.85;3.90;;;21.60;99.90;;;;;;4136561;28;20037;-65
2022/09/13 08:39:16;;;;;;;8.98;4.55;;;21.70;99.90;;;;;;4131053;28;20117;-65
2022/09/13 08:41:32;;;;;;;5.10;3.67;;;21.70;99.90;;;;;;4129523;28;20512;-65
2022/09/13 08:43:49;;;;;;;5.93;4.20;;;21.70;99.90;;;;;;4131865;28;20555;-65
2022/09/13 08:46:04;;;;;;;5.07;3.65;;;21.80;99.90;;;;;;4126986;28;20085;-65
2022/09/13 08:48:13;;;;;;;5.53;4.18;;;21.80;99.90;;;;;;4129878;28;20520;-65
2022/09/13 08:50:28;;;;;;;5.47;3.97;;;21.90;99.90;;;;;;4127397;28;20030;-65
2022/09/13 08:52:39;;;;;;;5.70;4.03;;;21.90;99.90;;;;;;4130938;28;20034;-65
2022/09/13 08:54:40;;;;;;;5.15;3.72;;;22.00;99.90;;;;;;4129836;28;20038;-65
2022/09/13 08:56:52;;;;;;;6.78;4.63;;;22.10;99.90;;;;;;4130001;28;20097;-65
2022/09/13 08:58:56;;;;;;;8.00;4.80;;;22.10;99.90;;;;;;4127168;28;20030;-65
2022/09/13 09:01:10;;;;;;;8.15;5.30;;;22.30;99.90;;;;;;4131759;28;20042;-64
2022/09/13 09:03:40;;;;;;;8.68;5.47;;;22.30;99.90;;;;;;4132007;28;20402;-65
2022/09/13 09:05:49;;;;;;;6.15;5.03;;;22.50;99.90;;;;;;4130927;28;20057;-65
2022/09/13 09:08:13;;;;;;;6.95;5.32;;;22.50;99.90;;;;;;4130493;28;20390;-65
2022/09/13 09:10:24;;;;;;;7.70;4.82;;;22.70;99.90;;;;;;4129391;28;20115;-65
2022/09/13 09:12:40;;;;;;;5.80;4.90;;;22.80;99.90;;;;;;4132954;28;20053;-65
2022/09/13 09:14:53;;;;;;;5.03;4.20;;;22.80;99.90;;;;;;4130794;28;20518;-65
2022/09/13 09:17:03;;;;;;;6.63;4.60;;;22.90;99.90;;;;;;4131128;28;20112;-65
2022/09/13 09:19:20;;;;;;;9.07;5.20;;;23.10;99.90;;;;;;4133822;28;20877;-65
2022/09/13 09:21:20;;;;;;;6.65;4.82;;;23.20;99.90;;;;;;4134456;28;20419;-66
2022/09/13 09:23:30;;;;;;;9.18;5.35;;;23.30;99.90;;;;;;4134002;28;20048;-66
2022/09/13 09:25:33;;;;;;;7.75;5.45;;;23.30;99.90;;;;;;4132150;28;20058;-66
2022/09/13 09:27:34;;;;;;;5.80;4.13;;;23.40;99.90;;;;;;4137886;28;20066;-65
2022/09/13 09:29:37;;;;;;;6.65;3.97;;;23.50;99.90;;;;;;4132672;28;20038;-65
2022/09/13 09:31:50;;;;;;;6.97;4.18;;;23.50;99.90;;;;;;4136095;28;20071;-65
2022/09/13 09:34:16;;;;;;;;;;;23.60;99.90;;;;;;4131246;28;20126;-66
2022/09/13 09:36:41;;;;;;;7.88;4.45;;;23.80;99.90;;;;;;4105758;28;19913;-65
2022/09/13 09:38:42;;;;;;;5.90;4.25;;;23.80;99.90;;;;;;4130231;28;20030;-66
2022/09/13 09:40:44;;;;;;;5.68;3.80;;;23.90;99.90;;;;;;4131522;28;20065;-65
2022/09/13 09:42:48;;;;;;;7.13;5.00;;;24.00;99.90;;;;;;4134181;28;20477;-65
2022/09/13 09:45:23;;;;;;;6.40;4.78;;;24.10;99.90;;;;;;4128765;28;20061;-65
2022/09/13 09:47:27;;;;;;;5.63;4.10;;;24.20;99.90;;;;;;4128295;28;20054;-66
2022/09/13 09:50:09;;;;;;;6.07;3.97;;;24.30;99.90;;;;;;4130851;28;20715;-66
2022/09/13 09:52:13;;;;;;;5.60;4.57;;;24.40;99.90;;;;;;4133899;28;20041;-66
2022/09/13 09:54:14;;;;;;;6.63;3.85;;;24.50;99.90;;;;;;4131792;28;20113;-66
2022/09/13 09:56:27;;;;;;;5.32;3.63;;;24.60;99.90;;;;;;4136418;28;20440;-66
2022/09/13 09:58:39;;;;;;;5.47;3.70;;;24.70;99.90;;;;;;4129243;28;20038;-66
2022/09/13 10:00:57;;;;;;;3.90;3.08;;;24.80;99.90;;;;;;4129908;28;20081;-65
2022/09/13 10:03:01;;;;;;;5.88;3.88;;;24.90;99.90;;;;;;4132959;28;20046;-66
2022/09/13 10:05:03;;;;;;;6.43;3.75;;;24.90;99.90;;;;;;4133840;28;20129;-67
2022/09/13 10:07:26;;;;;;;6.28;4.00;;;25.00;99.90;;;;;;4132628;28;20042;-66
2022/09/13 10:09:27;;;;;;;4.90;3.88;;;25.10;99.90;;;;;;4129602;28;20041;-65
2022/09/13 10:11:55;;;;;;;5.50;3.35;;;25.10;99.90;;;;;;4130626;28;20045;-66
2022/09/13 10:13:59;;;;;;;5.00;3.33;;;25.10;99.90;;;;;;4132866;28;20035;-65
2022/09/13 10:16:20;;;;;;;6.20;3.83;;;25.20;99.90;;;;;;4130612;28;20072;-66
2022/09/13 10:18:22;;;;;;;5.55;4.13;;;25.20;99.90;;;;;;4128227;28;21094;-67
2022/09/13 10:20:25;;;;;;;5.13;4.63;;;25.20;99.90;;;;;;4124721;28;20050;-66
2022/09/13 10:22:28;;;;;;;6.47;4.28;;;25.30;99.90;;;;;;4132156;28;20038;-65
2022/09/13 10:24:29;;;;;;;6.57;4.15;;;25.30;99.90;;;;;;4131287;28;20494;-66
2022/09/13 10:26:32;;;;;;;10.60;5.13;;;25.40;99.90;;;;;;4129687;28;20034;-65
2022/09/13 10:28:47;;;;;;;8.68;5.15;;;25.40;99.90;;;;;;4131365;28;20489;-66
2022/09/13 10:30:56;;;;;;;6.90;4.32;;;25.40;99.90;;;;;;4130402;28;20035;-66
2022/09/13 10:32:57;;;;;;;10.40;4.03;;;25.50;99.90;;;;;;4131520;28;20038;-66
2022/09/13 10:35:15;;;;;;;5.30;4.43;;;25.50;99.90;;;;;;4129257;28;20552;-66
2022/09/13 10:37:21;;;;;;;7.82;5.15;;;25.50;99.90;;;;;;4128826;28;20039;-66
2022/09/13 10:39:23;;;;;;;5.50;3.88;;;25.50;99.90;;;;;;4129603;28;20129;-65
2022/09/13 10:41:27;;;;;;;5.20;4.45;;;25.60;99.90;;;;;;4132074;28;20468;-65
2022/09/13 10:43:30;;;;;;;6.35;4.28;;;25.60;99.90;;;;;;4131191;28;20092;-65
2022/09/13 10:45:31;;;;;;;5.40;3.50;;;25.60;99.90;;;;;;4126960;28;20034;-65
2022/09/13 10:47:47;;;;;;;8.63;5.30;;;25.70;99.90;;;;;;4135096;28;20370;-65
2022/09/13 10:49:53;;;;;;;7.70;5.60;;;25.70;99.90;;;;;;4126484;28;20026;-65
2022/09/13 10:51:54;;;;;;;5.65;4.00;;;25.70;99.90;;;;;;4133353;28;20061;-65
2022/09/13 10:54:19;;;;;;;5.55;4.20;;;25.70;99.90;;;;;;4130340;28;20039;-65
2022/09/13 10:56:24;;;;;;;6.03;4.38;;;25.70;99.90;;;;;;4132215;28;20036;-65
2022/09/13 10:58:24;;;;;;;6.47;4.50;;;25.80;99.90;;;;;;4131282;28;20026;-66
2022/09/13 11:00:34;;;;;;;6.47;4.85;;;25.70;99.90;;;;;;4128843;28;20061;-66
2022/09/13 11:02:38;;;;;;;5.60;4.60;;;25.80;99.90;;;;;;4128484;28;20085;-66